Welcome to our new website - Welkom op onze vernieuwde website - Bienvenue sur notre nouveau site web - Willkommen auf unserer neuen Website
Check our progress frequently. Prüfen Sie unsere Fortschritte regelmäßig. Consultez notre progression fréquemment. Komt u straks nog eens terug
Het weer levert geen direct gevaar op.    Er zijn geen waarschuwingen afgegeven.

Regen radar Meer informatie rain snow radar


Bezoek ook deze websites:

Template documentation
and downloads

And another site


U vindt ons ook hier:

UK Metoffice

WeatherCloud

Weather Underground

AWEKAS



METAR rapporten vliegvelden

Warning: A non-numeric value encountered in /customers/a/f/b/meteoassenede.be/httpd.www/weather28/metar/metarDisplay.php on line 166 Warning: A non-numeric value encountered in /customers/a/f/b/meteoassenede.be/httpd.www/weather28/metar/metarDisplay.php on line 166
   
EBBR - Brussels International Airport, Belgium
Afstand tot: W 14 km
Gewijzigd: 25-10-2020 19:50
Helder  
Helder  
   Wind: Zuiden 13 km/h
Wind: Zuiden 13 km/h
Temperatuur: 10°C
Voelt als: 8°C
Dauwpunt: 8°C
Vochtigheid: 88%
Barometer: 1001 hPa
Zicht: meer dan 10 km
Bewolking: Helder
EBBR 251850Z 19007KT CAVOK 10/08 Q1001 NOSIG
EBBE - Beauvechain (Bevekom), Belgium
Afstand tot: ZZO 17 km
Gewijzigd: 25-10-2020 19:55
Grotendeels bewolkt  
Grotendeels bewolkt  
   Wind: Zuiden 17 km/h
Wind: Zuiden 17 km/h
Temperatuur: 10°C
Voelt als: 8°C
Dauwpunt: 9°C
Vochtigheid: 94%
Barometer: 1001 hPa
Bewolking: Grotendeels bewolkt
Zicht: meer dan 10 km
Bewolking: Licht bewolkt 8000 ft,
Grotendeels bewolkt 19000 ft
EBBE 251855Z AUTO 19009KT 9999 FEW080/// BKN190/// 10/09 Q1001 BLU
EBDT - Schaffen, Belgium
Afstand tot: ONO 29 km
Gewijzigd: 25-10-2020 19:55
Gedeeltelijk bewolkt  
Gedeeltelijk bewolkt  
   Wind: Zuiden 11 km/h
Wind: Zuiden 11 km/h
Temperatuur: 10°C
Voelt als: 8°C
Dauwpunt: 9°C
Vochtigheid: 94%
Barometer: 1001 hPa
Bewolking: Gedeeltelijk bewolkt
Zicht: meer dan 10 km
Bewolking: Licht bewolkt 2700 ft,
Gedeeltelijk bewolkt 22000 ft
EBDT 251855Z AUTO 19006KT 9999 FEW027/// SCT220/// 10/09 Q1001 BLU
EBAW - Antwerp/Deurne, Belgium
Afstand tot: NNW 38 km
Gewijzigd: 25-10-2020 19:50
Helder  
Helder  
   Wind: Zuiden 15 km/h
Wind: Zuiden 15 km/h
Temperatuur: 11°C
Dauwpunt: 8°C
Vochtigheid: 82%
Barometer: 1001 hPa
Zicht: meer dan 10 km
Bewolking: Helder
EBAW 251850Z 18008KT CAVOK 11/08 Q1001 NOSIG
EBCI - Charleroi/Gosselies, Belgium
Afstand tot: ZZW 51 km
Gewijzigd: 25-10-2020 19:50
Licht bewolkt  
Licht bewolkt  
   Wind: ZZW 19 km/h
Wind: ZZW 19 km/h
Temperatuur: 10°C
Voelt als: 8°C
Dauwpunt: 8°C
Vochtigheid: 88%
Barometer: 1002 hPa
Bewolking: Licht bewolkt
Zicht: meer dan 10 km
Bewolking: Licht bewolkt 1300 ft
EBCI 251850Z 20010KT 9999 FEW013 10/08 Q1002 NOSIG
EBLG - Bierset/Liege, Belgium
Afstand tot: OZO 60 km
Gewijzigd: 25-10-2020 19:50
Grotendeels bewolkt  
Grotendeels bewolkt  
   Wind: Zuiden 17 km/h
Wind: Zuiden 17 km/h
Temperatuur: 10°C
Voelt als: 8°C
Dauwpunt: 9°C
Vochtigheid: 94%
Barometer: 1002 hPa
Bewolking: Grotendeels bewolkt
Zicht: meer dan 10 km
Bewolking: Licht bewolkt 1600 ft,
Gedeeltelijk bewolkt 2200 ft,
Grotendeels bewolkt 4800 ft
EBLG 251850Z 19009KT 9999 FEW016 SCT022 BKN048 10/09 Q1002 NOSIG

Script ontwikkeld door  Saratoga-weather.org Aangepast voor de template door  Weerstation Leuven

Apparatuur in gebruik:

Weerstation
Davis Vantage Pro2

Weerprogramma
Meteobridge

Weercomputer
TP-Link TL-MR3020

Webleverancier
One.com

Davis Vantage Pro2

Meteobridge

TP-Link TL-MR3020

One.com